Terminal Aerodrome Forecast
Issued by NWS Sterling, VA

Home | Current Version | Previous Version | Text Only | Print | Product List | Glossary On
Versions: 1 2 3 4 5 6 7 8 9 10 11 12 13 14 15 16 17 18 19 20 21 22
000
FTUS41 KLWX 220500 RRA
TAFBWI
TAF
KBWI 220544Z 2206/2312 00000KT P6SM SCT250
     FM221400 VRB03KT P6SM SCT050 OVC090
     FM221700 06004KT 6SM -RA OVC050
     FM222100 05005KT 5SM -RA SCT015 OVC025
     FM222300 03004KT 3SM -RA OVC015
     FM230500 02006KT P6SM OVC008=

USA.gov is the U.S. government's official web portal to all federal, state and local government web resources and services.